Terminal Aerodrome Forecast
Issued by NWS Hastings, NE

Home | Current Version | Previous Version | Text Only | Print | Product List | Glossary On
Versions: 1 2 3 4 5 6 7 8 9 10 11 12 13 14 15 16
000
FTUS43 KGID 222320
TAFGRI
TAF
KGRI 222320Z 2300/2324 33016G22KT P6SM SCT120 BKN250
     FM230200 34010KT P6SM VCTS SCT070CB BKN120
     FM230600 34008KT P6SM VCSH SCT070 BKN120
     FM231400 33017G24KT P6SM SCT070 BKN120=

USA.gov is the U.S. government's official web portal to all federal, state and local government web resources and services.